Sao Jose de Mipibu, Brazil
Current Conditions -  °F | °C
As of 5:00 AM on Friday 24 Oct 2014 (Local Time) from SBNT Reporting Station
Broken Clouds Broken Clouds  
Wind Chill: 77°   Ceiling: 2100
Heat Index: 79°   Visibility: 6mi
Dew Point: 66°   Wind: 13mph
Humidity: 69%   Direction: 120°ESE
Pressure: 29.91"   Gusts: NA
Location:  6.07°S, 35.24°W
Report Text: SBNT 240800Z 12011KT 9999 BKN021 25/19 Q1013
Loading
Personal Weather Stations






























Interactive Weather Map
Tropical Storm Tracking
New forecast layout! Learn more

10-Day Weather Forecast

Advertisements
Track Severe Weather on mobile